Time;durP1;ratioP1;P1;durP2;ratioP2;P2;SDS_P1;SDS_P2;PMS_P1;PMS_P2;Temp;Humidity;BMP_temperature;BMP_pressure;BME280_temperature;BME280_humidity;BME280_pressure;Samples;Min_cycle;Max_cycle;Signal;HPM_P1;HPM_P2
2023/07/02 00:01:56;;;;;;;2.00;2.00;;;;;;;22.53;100.00;151703.25;6213955;23;20492;-63
2023/07/02 00:04:23;;;;;;;2.10;2.05;;;;;;;22.53;100.00;151703.25;6213986;23;20209;-64
2023/07/02 00:06:52;;;;;;;2.20;2.10;;;;;;;22.57;100.00;151713.50;6213979;23;20623;-64
2023/07/02 00:09:19;;;;;;;2.60;2.40;;;;;;;22.42;100.00;151673.91;6213835;23;20158;-64
2023/07/02 00:11:46;;;;;;;2.28;2.08;;;;;;;22.36;100.00;151659.94;6213619;23;20164;-64
2023/07/02 00:14:15;;;;;;;2.22;2.05;;;;;;;22.54;100.00;151704.53;6213488;23;20165;-63
2023/07/02 00:16:45;;;;;;;2.38;2.17;;;;;;;22.45;100.00;151682.84;6214016;23;20158;-63
2023/07/02 00:19:12;;;;;;;4.28;2.17;;;;;;;22.46;100.00;151684.13;6213593;23;20185;-62
2023/07/02 00:21:40;;;;;;;2.30;2.20;;;;;;;22.50;100.00;151694.31;6213966;23;20158;-65
2023/07/02 00:24:10;;;;;;;2.28;2.08;;;;;;;22.56;100.00;151709.66;6213464;23;20193;-64
2023/07/02 00:26:38;;;;;;;2.05;1.90;;;;;;;22.58;100.00;151714.72;6213694;23;20161;-63
2023/07/02 00:29:05;;;;;;;2.30;2.10;;;;;;;22.59;100.00;151717.28;6213929;23;20193;-65
2023/07/02 00:31:33;;;;;;;2.63;2.53;;;;;;;22.45;100.00;151681.59;6213927;23;20555;-64
2023/07/02 00:34:01;;;;;;;2.35;2.25;;;;;;;22.50;100.00;151695.59;6213813;23;20684;-63
2023/07/02 00:36:28;;;;;;;2.28;2.17;;;;;;;22.58;100.00;151716.00;6213450;23;20162;-63
2023/07/02 00:38:55;;;;;;;2.40;2.30;;;;;;;22.57;100.00;151712.22;6213758;23;20640;-63
2023/07/02 00:41:23;;;;;;;3.28;2.40;;;;;;;22.49;100.00;151693.03;6213331;23;20164;-64
2023/07/02 00:43:54;;;;;;;2.95;2.50;;;;;;;22.56;100.00;151709.66;6213384;23;20172;-64
2023/07/02 00:46:25;;;;;;;1.95;1.85;;;;;;;22.61;100.00;151722.41;6213693;23;20249;-63
2023/07/02 00:48:53;;;;;;;2.33;2.22;;;;;;;22.55;100.00;151707.09;6215579;23;20601;-64
2023/07/02 00:51:21;;;;;;;3.25;2.42;;;;;;;22.56;100.00;151709.66;6188779;23;20166;-64
2023/07/02 00:53:49;;;;;;;4.55;2.58;;;;;;;22.67;100.00;151737.69;6215943;23;20164;-64
2023/07/02 00:56:16;;;;;;;8.43;2.38;;;;;;;22.58;100.00;151714.72;6215634;23;20180;-64
2023/07/02 00:58:50;;;;;;;2.45;2.35;;;;;;;22.50;100.00;151694.31;6215201;23;20666;-64
2023/07/02 01:01:18;;;;;;;2.40;2.30;;;;;;;22.62;100.00;151726.22;6215664;23;20605;-63
2023/07/02 01:03:53;;;;;;;2.65;2.50;;;;;;;22.45;100.00;151682.84;6215724;23;20180;-64
2023/07/02 01:06:25;;;;;;;2.78;2.58;;;;;;;22.41;100.00;151671.34;6215099;23;20169;-64
2023/07/02 01:08:56;;;;;;;2.35;2.25;;;;;;;22.73;100.00;151753.06;6215168;23;20213;-64
2023/07/02 01:11:27;;;;;;;2.50;2.40;;;;;;;22.55;100.00;151708.38;6215052;23;20158;-63
2023/07/02 01:14:00;;;;;;;2.30;2.20;;;;;;;22.44;100.00;151679.03;6215506;23;20547;-64
2023/07/02 01:16:27;;;;;;;2.90;2.80;;;;;;;22.53;100.00;151702.00;6215003;23;20214;-64
2023/07/02 01:18:56;;;;;;;2.70;2.60;;;;;;;22.45;100.00;151681.59;6214953;23;20268;-64
2023/07/02 01:21:26;;;;;;;2.88;2.78;;;;;;;22.50;100.00;151694.31;6214932;23;20162;-63
2023/07/02 01:23:53;;;;;;;3.08;2.47;;;;;;;22.48;100.00;151690.53;6215120;23;20170;-64
2023/07/02 01:26:27;;;;;;;7.07;2.90;;;;;;;22.49;100.00;151693.03;6214978;23;20165;-64
2023/07/02 01:28:54;;;;;;;2.75;2.63;;;;;;;22.51;100.00;151696.88;6215295;23;20619;-62
2023/07/02 01:31:24;;;;;;;2.90;2.70;;;;;;;22.54;100.00;151705.81;6214899;23;20161;-64
2023/07/02 01:33:52;;;;;;;2.95;2.60;;;;;;;22.38;100.00;151665.00;6214886;23;20250;-64
2023/07/02 01:36:19;;;;;;;2.90;2.80;;;;;;;22.50;100.00;151695.59;6215152;23;20181;-63
2023/07/02 01:38:47;;;;;;;2.70;2.55;;;;;;;22.51;100.00;151696.88;6214848;23;20181;-64
2023/07/02 01:41:14;;;;;;;3.42;3.05;;;;;;;22.46;100.00;151684.13;6215227;23;20158;-63
2023/07/02 01:43:41;;;;;;;3.35;3.15;;;;;;;22.39;100.00;151667.56;6214874;23;20208;-63
2023/07/02 01:46:07;;;;;;;7.32;3.30;;;;;;;22.28;100.00;135685.47;6214686;23;20165;-64
2023/07/02 01:48:34;;;;;;;3.50;3.30;;;;;;;22.39;100.00;118807.34;6215079;23;20154;-64
2023/07/02 01:51:01;;;;;;;3.78;3.58;;;;;;;22.36;100.00;106012.22;6214899;23;20158;-63
2023/07/02 01:53:28;;;;;;;3.28;3.17;;;;;;;22.39;100.00;105680.72;6214843;23;20158;-64
2023/07/02 01:55:56;;;;;;;3.88;3.20;;;;;;;22.52;100.00;102681.00;6214668;23;20193;-63
2023/07/02 01:58:23;;;;;;;10.88;6.13;;;;;;;22.46;100.00;124222.53;6214166;23;20201;-63
2023/07/02 02:00:50;;;;;;;6.00;5.60;;;;;;;22.44;100.00;151680.31;6215119;23;20655;-64
2023/07/02 02:03:17;;;;;;;5.40;5.10;;;;;;;22.19;100.00;145708.38;6214710;23;20161;-63
2023/07/02 02:05:44;;;;;;;5.10;4.78;;;;;;;22.20;100.00;135327.38;6214569;23;20165;-64
2023/07/02 02:08:10;;;;;;;3.53;3.42;;;;;;;21.98;100.00;83521.72;6214451;23;20244;-63
2023/07/02 02:10:37;;;;;;;3.83;3.63;;;;;;;21.73;100.00;45022.22;6215029;23;20161;-63
2023/07/02 02:13:06;;;;;;;3.65;3.45;;;;;;;21.92;100.00;24322.78;6214980;23;20157;-63
2023/07/02 02:15:32;;;;;;;3.80;3.60;;;;;;;21.84;100.00;17116.69;6214512;23;20168;-63
2023/07/02 02:17:59;;;;;;;3.80;3.63;;;;;;;21.98;100.00;15486.25;6215065;23;20164;-64
2023/07/02 02:20:26;;;;;;;3.88;3.72;;;;;;;21.92;100.00;12216.91;6214839;23;20500;-63
2023/07/02 02:22:53;;;;;;;3.88;3.67;;;;;;;22.00;100.00;8954.25;6214972;23;20168;-64
2023/07/02 02:25:20;;;;;;;4.07;3.78;;;;;;;21.99;100.00;9280.38;6214769;23;20158;-63
2023/07/02 02:27:47;;;;;;;4.30;3.90;;;;;;;21.86;100.00;6994.59;6214690;23;20497;-64
2023/07/02 02:30:17;;;;;;;4.00;3.78;;;;;;;22.07;100.00;5693.81;6214739;23;20244;-64
2023/07/02 02:32:44;;;;;;;4.00;3.80;;;;;;;22.05;100.00;17777.88;6214362;23;20239;-63
2023/07/02 02:35:10;;;;;;;4.10;3.80;;;;;;;22.23;100.00;11571.34;6214829;23;20197;-64
2023/07/02 02:37:38;;;;;;;4.85;4.43;;;;;;;22.10;100.00;31223.47;6214676;23;20158;-63
2023/07/02 02:40:08;;;;;;;4.90;4.53;;;;;;;22.11;100.00;44722.22;6214533;23;20195;-64
2023/07/02 02:42:35;;;;;;;8.85;4.20;;;;;;;21.99;100.00;23342.59;6214627;23;20200;-63
2023/07/02 02:45:02;;;;;;;5.03;4.22;;;;;;;22.08;100.00;10587.88;6214638;23;20560;-64
2023/07/02 02:47:30;;;;;;;8.18;4.72;;;;;;;22.08;100.00;4390.13;6214057;23;20252;-63
2023/07/02 02:49:57;;;;;;;5.80;4.40;;;;;;;21.98;100.00;2759.97;6214260;23;20154;-64
2023/07/02 02:52:25;;;;;;;4.32;4.15;;;;;;;22.07;100.00;-494.75;6214569;23;20158;-63
2023/07/02 02:54:52;;;;;;;4.20;3.90;;;;;;;21.99;100.00;-3097.03;6214605;23;20172;-63
2023/07/02 02:57:20;;;;;;;8.93;4.57;;;;;;;22.24;100.00;-3422.09;6214146;23;20267;-64
2023/07/02 02:59:47;;;;;;;7.82;4.68;;;;;;;22.07;100.00;6671.94;6214417;23;20643;-63
2023/07/02 03:02:14;;;;;;;7.32;4.75;;;;;;;22.21;100.00;24663.78;6214133;23;20162;-64
2023/07/02 03:04:44;;;;;;;6.20;4.43;;;;;;;22.32;100.00;4719.22;6214450;23;20619;-64
2023/07/02 03:07:11;;;;;;;4.68;4.22;;;;;;;22.25;100.00;-3422.09;6187395;23;20509;-63
2023/07/02 03:09:40;;;;;;;5.15;4.22;;;;;;;22.33;100.00;-3747.31;6213996;23;20184;-63
2023/07/02 03:12:07;;;;;;;6.90;4.35;;;;;;;22.48;100.00;-3422.06;6213891;23;20166;-64
2023/07/02 03:14:34;;;;;;;4.43;4.22;;;;;;;22.69;100.00;-2445.56;6213979;23;20154;-63
2023/07/02 03:17:02;;;;;;;4.13;3.95;;;;;;;22.79;100.00;2115.94;6213924;23;20165;-63
2023/07/02 03:19:29;;;;;;;5.05;4.30;;;;;;;23.15;100.00;9304.00;6213756;23;20502;-63
2023/07/02 03:21:58;;;;;;;7.60;4.20;;;;;;;23.41;100.00;16184.97;6213890;23;20166;-64
2023/07/02 03:24:24;;;;;;;4.50;4.10;;;;;;;23.86;100.00;25395.53;6213938;23;20167;-63
2023/07/02 03:26:51;;;;;;;4.38;3.95;;;;;;;24.03;100.00;40571.75;6213870;23;20197;-64
2023/07/02 03:29:20;;;;;;;4.20;3.88;;;;;;;24.24;100.00;45217.91;6213855;23;20241;-63
2023/07/02 03:31:47;;;;;;;6.72;4.30;;;;;;;24.10;100.00;46531.44;6214202;23;20196;-65
2023/07/02 03:34:14;;;;;;;4.90;3.88;;;;;;;24.09;100.00;44875.53;6213996;23;20215;-64
2023/07/02 03:36:41;;;;;;;4.40;4.10;;;;;;;23.87;100.00;36597.88;6213997;23;20195;-64
2023/07/02 03:39:09;;;;;;;4.53;3.40;;;;;;;23.87;100.00;38908.75;6213803;23;20181;-64
2023/07/02 03:41:36;;;;;;;4.28;3.60;;;;;;;24.12;100.00;40578.16;6214312;23;20470;-62
2023/07/02 03:44:03;;;;;;;10.25;3.97;;;;;;;24.19;100.00;48525.47;6213768;23;20158;-63
2023/07/02 03:46:31;;;;;;;4.63;4.10;;;;;;;24.44;100.00;56844.25;6213769;23;20161;-63
2023/07/02 03:48:58;;;;;;;4.63;4.10;;;;;;;24.36;100.00;61157.97;6213959;23;20215;-64
2023/07/02 03:51:25;;;;;;;5.93;3.88;;;;;;;24.26;100.00;66140.50;6213656;23;20158;-63
2023/07/02 03:53:51;;;;;;;3.80;3.60;;;;;;;24.58;100.00;73850.81;6213902;23;20177;-63
2023/07/02 03:56:20;;;;;;;3.90;3.55;;;;;;;24.55;100.00;64507.34;6213683;23;20165;-64
2023/07/02 03:58:47;;;;;;;4.53;3.50;;;;;;;24.63;100.00;63183.81;6213524;23;20208;-64
2023/07/02 04:01:14;;;;;;;3.40;3.30;;;;;;;24.51;100.00;69836.44;6214176;23;20179;-64
2023/07/02 04:03:43;;;;;;;3.72;3.30;;;;;;;24.43;100.00;70827.75;6213950;23;20164;-63
2023/07/02 04:06:10;;;;;;;7.35;3.33;;;;;;;24.78;100.00;75547.03;6213675;23;20164;-64
2023/07/02 04:08:37;;;;;;;3.95;3.10;;;;;;;25.04;100.00;86634.28;6214079;23;20589;-62
2023/07/02 04:11:04;;;;;;;3.67;3.38;;;;;;;25.02;100.00;98395.03;6213588;23;20161;-64
2023/07/02 04:13:32;;;;;;;3.42;3.22;;;;;;;25.17;100.00;128857.41;6213540;23;20161;-64
2023/07/02 04:15:59;;;;;;;7.45;3.38;;;;;;;25.24;100.00;117341.25;6213997;23;20501;-64
2023/07/02 04:18:25;;;;;;;4.68;3.28;;;;;;;25.45;100.00;149520.19;6213861;23;20166;-63
2023/07/02 04:20:53;;;;;;;3.08;2.88;;;;;;;25.73;100.00;152511.66;6214234;23;20186;-63
2023/07/02 04:23:19;;;;;;;3.50;3.20;;;;;;;25.93;100.00;152562.75;6215965;23;20466;-64
2023/07/02 04:25:46;;;;;;;3.85;3.13;;;;;;;26.07;100.00;152597.28;6215515;23;20172;-63
2023/07/02 04:28:13;;;;;;;3.33;3.03;;;;;;;26.20;100.00;152629.28;6215566;23;20149;-64
2023/07/02 04:30:42;;;;;;;2.85;2.63;;;;;;;26.45;100.00;152691.94;6215889;23;20157;-63
2023/07/02 04:33:09;;;;;;;3.88;3.10;;;;;;;26.53;100.00;152713.66;6215416;23;20164;-64
2023/07/02 04:35:36;;;;;;;5.90;2.92;;;;;;;26.76;100.00;152772.53;6215604;23;20319;-63
2023/07/02 04:38:03;;;;;;;3.03;2.67;;;;;;;27.19;100.00;152881.28;6215392;23;20168;-64
2023/07/02 04:40:30;;;;;;;3.92;2.97;;;;;;;27.01;100.00;152835.22;6215452;23;20181;-64
2023/07/02 04:42:58;;;;;;;4.20;3.20;;;;;;;26.88;100.00;152801.97;6215688;23;20158;-64
2023/07/02 04:45:26;;;;;;;3.30;3.08;;;;;;;26.96;100.00;152821.16;6215811;23;20169;-64
2023/07/02 04:47:55;;;;;;;6.93;3.67;;;;;;;27.02;100.00;152837.78;6215301;23;20193;-64
2023/07/02 04:50:21;;;;;;;3.78;3.42;;;;;;;26.53;100.00;152712.38;6215389;23;20162;-64
2023/07/02 04:52:48;;;;;;;4.35;3.45;;;;;;;26.27;100.00;152647.16;6215286;23;20161;-66
2023/07/02 04:55:15;;;;;;;3.97;3.72;;;;;;;26.22;100.00;152634.44;6215739;23;20460;-64
2023/07/02 04:57:44;;;;;;;4.93;4.20;;;;;;;26.27;100.00;152648.47;6215239;23;20286;-64
2023/07/02 05:00:12;;;;;;;4.10;3.90;;;;;;;26.23;100.00;152636.94;6215548;23;20204;-65
2023/07/02 05:02:39;;;;;;;4.95;3.85;;;;;;;26.37;100.00;152672.75;6215330;23;20162;-64
2023/07/02 05:05:08;;;;;;;4.88;3.70;;;;;;;26.20;100.00;152630.56;6215153;23;20164;-64
2023/07/02 05:07:34;;;;;;;5.32;3.90;;;;;;;26.08;100.00;152599.84;6215554;23;20236;-63
2023/07/02 05:10:01;;;;;;;4.32;4.03;;;;;;;26.14;100.00;152615.16;6215404;23;20154;-64
2023/07/02 05:12:29;;;;;;;4.35;3.28;;;;;;;26.39;100.00;152676.63;6214916;23;20162;-64
2023/07/02 05:14:55;;;;;;;5.38;3.53;;;;;;;26.37;100.00;152672.75;6215485;23;20162;-64
2023/07/02 05:17:22;;;;;;;5.70;3.75;;;;;;;26.34;100.00;152665.09;6215171;23;20162;-64
2023/07/02 05:19:49;;;;;;;4.30;3.90;;;;;;;26.28;100.00;152649.75;6215492;23;20640;-64
2023/07/02 05:22:17;;;;;;;4.28;3.75;;;;;;;26.31;100.00;152658.69;6215010;23;20157;-64
2023/07/02 05:24:44;;;;;;;4.38;3.33;;;;;;;26.04;100.00;152588.34;6215330;23;20158;-64
2023/07/02 05:27:11;;;;;;;3.78;2.90;;;;;;;26.24;100.00;152639.50;6215129;23;20194;-63
2023/07/02 05:29:38;;;;;;;5.45;3.33;;;;;;;26.14;100.00;152615.16;6215850;23;20585;-64
2023/07/02 05:32:05;;;;;;;3.08;2.80;;;;;;;26.38;100.00;152674.06;6214944;23;20232;-64
2023/07/02 05:34:32;;;;;;;3.55;3.25;;;;;;;26.40;100.00;152679.13;6215296;23;20165;-64
2023/07/02 05:36:59;;;;;;;3.05;2.85;;;;;;;26.48;100.00;152700.88;6214820;23;20236;-63
2023/07/02 05:39:27;;;;;;;4.15;3.25;;;;;;;26.50;100.00;152706.00;6214771;23;20182;-63
2023/07/02 05:41:54;;;;;;;3.40;3.20;;;;;;;26.15;100.00;152617.75;6214823;23;20508;-65
2023/07/02 05:44:21;;;;;;;6.32;3.30;;;;;;;26.37;100.00;152672.75;6215256;23;20544;-63
2023/07/02 05:46:48;;;;;;;3.63;3.33;;;;;;;26.41;100.00;152681.72;6215109;23;20165;-65
2023/07/02 05:49:15;;;;;;;3.42;3.30;;;;;;;26.35;100.00;152668.91;6215034;23;20600;-64
2023/07/02 05:51:42;;;;;;;3.70;3.50;;;;;;;26.40;100.00;152679.13;6214738;23;20168;-65
2023/07/02 05:54:09;;;;;;;3.58;3.30;;;;;;;26.27;100.00;152647.16;6214599;23;20177;-64
2023/07/02 05:56:37;;;;;;;3.20;3.10;;;;;;;26.42;100.00;152685.56;6214929;23;20616;-64
2023/07/02 05:59:04;;;;;;;3.30;3.10;;;;;;;26.32;100.00;152659.97;6214632;23;20548;-64
2023/07/02 06:01:31;;;;;;;3.20;3.00;;;;;;;26.65;100.00;152744.34;6214769;23;20177;-64
2023/07/02 06:03:57;;;;;;;3.00;2.90;;;;;;;27.03;100.00;152840.31;6214777;23;20196;-64
2023/07/02 06:06:24;;;;;;;4.43;3.20;;;;;;;27.32;100.00;152913.28;6215086;23;20516;-63
2023/07/02 06:08:51;;;;;;;3.53;3.00;;;;;;;27.24;100.00;152894.03;6214613;23;20212;-64
2023/07/02 06:11:18;;;;;;;3.30;3.03;;;;;;;27.39;100.00;152929.88;6214600;23;20162;-65
2023/07/02 06:13:47;;;;;;;3.83;3.53;;;;;;;27.61;100.00;152987.53;6214623;23;20164;-64
2023/07/02 06:16:13;;;;;;;4.05;3.15;;;;;;;27.43;100.00;152941.41;6214546;23;20166;-63
2023/07/02 06:18:41;;;;;;;3.28;3.08;;;;;;;27.36;100.00;152922.22;6214938;23;20190;-64
2023/07/02 06:21:08;;;;;;;5.35;3.28;;;;;;;27.70;100.00;153010.56;6214423;23;20182;-65
2023/07/02 06:23:41;;;;;;;4.70;3.08;;;;;;;27.81;100.00;153036.13;6214816;23;20161;-64
2023/07/02 06:26:08;;;;;;;2.97;2.85;;;;;;;27.76;100.00;153023.31;6214834;23;20164;-64
2023/07/02 06:28:35;;;;;;;3.53;3.10;;;;;;;27.78;100.00;153028.47;6214316;23;20162;-64
2023/07/02 06:31:03;;;;;;;4.22;3.17;;;;;;;27.63;100.00;152991.34;6214868;23;20177;-64
2023/07/02 06:33:30;;;;;;;3.15;2.95;;;;;;;27.53;100.00;152965.78;6214404;23;20157;-64
2023/07/02 06:35:57;;;;;;;3.40;3.20;;;;;;;27.65;100.00;152996.47;6214419;23;20162;-64
2023/07/02 06:38:24;;;;;;;3.90;3.47;;;;;;;27.74;100.00;153018.22;6214698;23;20164;-64
2023/07/02 06:40:51;;;;;;;3.50;3.20;;;;;;;27.98;100.00;153079.66;6214297;23;20186;-64
2023/07/02 06:43:18;;;;;;;3.70;3.50;;;;;;;28.26;100.00;153151.41;6214318;23;20169;-64
2023/07/02 06:45:45;;;;;;;4.15;3.30;;;;;;;28.70;100.00;153261.53;6188066;23;20161;-64
2023/07/02 06:48:14;;;;;;;4.72;3.15;;;;;;;28.18;100.00;153130.88;6214475;23;20158;-64
2023/07/02 06:50:44;;;;;;;3.38;3.05;;;;;;;27.82;100.00;153040.00;6214400;23;20153;-64
2023/07/02 06:53:11;;;;;;;3.08;2.90;;;;;;;27.92;100.00;153064.31;6214149;23;20154;-64
2023/07/02 06:55:38;;;;;;;3.15;3.05;;;;;;;27.90;100.00;153059.16;6214706;23;20573;-64
2023/07/02 06:58:05;;;;;;;3.42;3.13;;;;;;;27.96;100.00;153075.84;6214007;23;20201;-64
2023/07/02 07:00:35;;;;;;;3.13;2.92;;;;;;;27.99;100.00;153082.22;6214255;23;20181;-64
2023/07/02 07:03:02;;;;;;;2.97;2.88;;;;;;;27.86;100.00;153048.94;6214462;23;20168;-64
2023/07/02 07:05:31;;;;;;;4.00;2.75;;;;;;;28.32;100.00;153166.75;6214149;23;20165;-63
2023/07/02 07:07:58;;;;;;;3.42;3.22;;;;;;;28.91;100.00;153315.31;6214472;23;20592;-64
2023/07/02 07:10:25;;;;;;;3.50;3.28;;;;;;;28.73;100.00;153269.25;6214237;23;20154;-64
2023/07/02 07:12:51;;;;;;;3.75;3.45;;;;;;;28.91;100.00;153315.31;6214381;23;20157;-63
2023/07/02 07:15:18;;;;;;;3.60;3.33;;;;;;;28.14;100.00;153121.94;6214320;23;20169;-65
2023/07/02 07:17:45;;;;;;;4.03;3.20;;;;;;;28.28;100.00;153156.50;6214028;23;20201;-64
2023/07/02 07:20:13;;;;;;;6.03;3.30;;;;;;;28.70;100.00;153262.81;6187284;23;20204;-64
2023/07/02 07:22:42;;;;;;;5.65;3.83;;;;;;;28.87;100.00;153305.06;6214227;23;20161;-65
2023/07/02 07:25:10;;;;;;;4.03;3.40;;;;;;;29.27;100.00;153407.53;6213557;23;20177;-63
2023/07/02 07:27:37;;;;;;;4.30;3.28;;;;;;;29.18;100.00;153383.19;6213825;23;20211;-64
2023/07/02 07:30:04;;;;;;;3.42;3.22;;;;;;;29.33;100.00;153422.94;6214170;23;20588;-65
2023/07/02 07:32:31;;;;;;;3.30;3.17;;;;;;;29.43;100.00;153447.28;6213815;23;20224;-64
2023/07/02 07:34:58;;;;;;;3.75;3.45;;;;;;;29.64;100.00;153499.81;6213763;23;20196;-64
2023/07/02 07:37:26;;;;;;;3.05;2.95;;;;;;;29.63;100.00;153497.22;6214273;23;20245;-64
2023/07/02 07:39:54;;;;;;;3.35;3.15;;;;;;;29.38;100.00;153435.75;6213664;23;20227;-64
2023/07/02 07:42:21;;;;;;;3.17;3.08;;;;;;;29.37;100.00;153433.19;6187333;23;20169;-64
2023/07/02 07:44:48;;;;;;;3.63;3.35;;;;;;;28.28;100.00;153155.22;6213760;23;20601;-64
2023/07/02 07:47:15;;;;;;;3.22;3.13;;;;;;;28.13;100.00;153118.13;6214052;23;20158;-64
2023/07/02 07:49:41;;;;;;;3.97;3.78;;;;;;;28.21;100.00;153138.59;6213737;23;20210;-64
2023/07/02 07:52:09;;;;;;;3.90;3.70;;;;;;;28.08;100.00;153105.25;6213608;23;20158;-65
2023/07/02 07:54:38;;;;;;;4.05;3.80;;;;;;;27.77;100.00;153027.19;6213710;23;20248;-64
2023/07/02 07:57:07;;;;;;;3.65;3.45;;;;;;;27.47;100.00;152951.69;6213455;23;20291;-64
2023/07/02 07:59:34;;;;;;;4.00;3.80;;;;;;;27.52;100.00;152964.50;6213754;23;20169;-65
2023/07/02 08:02:01;;;;;;;4.03;3.92;;;;;;;27.50;100.00;152959.34;6213559;23;20182;-65
2023/07/02 08:04:28;;;;;;;3.65;3.55;;;;;;;27.18;100.00;152878.72;6213892;23;20191;-64
2023/07/02 08:06:56;;;;;;;3.90;3.67;;;;;;;27.36;100.00;152923.50;6213932;23;20250;-64
2023/07/02 08:09:25;;;;;;;4.22;3.50;;;;;;;27.43;100.00;152941.41;6188101;23;20275;-65
2023/07/02 08:11:52;;;;;;;3.88;3.60;;;;;;;27.56;100.00;152974.72;6213676;23;20184;-65
2023/07/02 08:14:20;;;;;;;3.30;3.20;;;;;;;28.13;100.00;153118.13;6214052;23;20164;-64
2023/07/02 08:16:47;;;;;;;3.67;3.40;;;;;;;28.34;100.00;153170.59;6213928;23;20496;-65
2023/07/02 08:19:14;;;;;;;6.35;3.30;;;;;;;28.40;100.00;153187.22;6213596;23;20168;-64
2023/07/02 08:21:41;;;;;;;3.50;3.25;;;;;;;28.37;100.00;153178.25;6213426;23;20177;-65
2023/07/02 08:24:08;;;;;;;4.00;3.00;;;;;;;28.29;100.00;153159.06;6213962;23;20164;-64
2023/07/02 08:26:35;;;;;;;3.50;3.30;;;;;;;28.50;100.00;153211.56;6213550;23;20161;-64
2023/07/02 08:29:02;;;;;;;4.00;3.13;;;;;;;28.64;100.00;153246.13;6213453;23;20161;-64
2023/07/02 08:31:32;;;;;;;3.60;3.50;;;;;;;28.44;100.00;153197.47;6213435;23;20154;-64
2023/07/02 08:33:58;;;;;;;3.40;3.30;;;;;;;28.43;100.00;153193.66;6214122;23;20537;-64
2023/07/02 08:36:25;;;;;;;4.40;3.40;;;;;;;28.20;100.00;153136.03;6213534;23;20161;-64
2023/07/02 08:38:52;;;;;;;3.72;3.60;;;;;;;27.77;100.00;153025.91;6213391;23;20206;-64
2023/07/02 08:41:21;;;;;;;3.80;3.70;;;;;;;27.46;100.00;152949.06;6213738;23;20205;-64
2023/07/02 08:43:49;;;;;;;3.88;3.75;;;;;;;27.86;100.00;153048.94;6213685;23;20158;-65
2023/07/02 08:46:16;;;;;;;3.90;3.80;;;;;;;27.89;100.00;153056.59;6213360;23;20620;-64
2023/07/02 08:48:44;;;;;;;4.00;3.80;;;;;;;28.15;100.00;153124.50;6213669;23;20183;-64
2023/07/02 08:51:11;;;;;;;3.97;3.67;;;;;;;28.01;100.00;153088.59;6213323;23;20154;-64
2023/07/02 08:53:40;;;;;;;3.92;3.60;;;;;;;28.32;100.00;153165.47;6213520;23;20157;-64
2023/07/02 08:56:06;;;;;;;4.10;3.83;;;;;;;28.47;100.00;153203.88;6213669;23;20560;-64
2023/07/02 08:58:33;;;;;;;4.03;3.72;;;;;;;28.49;100.00;153208.97;6204615;23;20208;-64
2023/07/02 09:01:08;;;;;;;4.30;4.10;;;;;;;28.63;100.00;153243.56;6213647;23;20181;-64
2023/07/02 09:03:36;;;;;;;4.40;4.20;;;;;;;28.16;100.00;153125.78;6213303;23;20158;-64
2023/07/02 09:06:05;;;;;;;4.20;4.00;;;;;;;28.37;100.00;153178.25;6213359;23;20172;-64
2023/07/02 09:08:33;;;;;;;3.80;3.70;;;;;;;28.66;100.00;153251.22;6214588;23;20264;-64
2023/07/02 09:11:10;;;;;;;3.60;3.40;;;;;;;28.60;100.00;153238.41;6215679;23;20601;-64
2023/07/02 09:13:47;;;;;;;3.55;3.35;;;;;;;28.30;100.00;153160.34;6215451;23;20157;-64
2023/07/02 09:16:24;;;;;;;4.00;3.70;;;;;;;28.24;100.00;153146.25;6215509;23;20158;-64
2023/07/02 09:19:02;;;;;;;8.27;4.13;;;;;;;28.31;100.00;153162.88;6215159;23;20157;-65
2023/07/02 09:21:39;;;;;;;4.40;3.30;;;;;;;28.22;100.00;153141.13;6214966;23;20181;-64
2023/07/02 09:24:14;;;;;;;3.67;3.47;;;;;;;27.84;100.00;153043.84;6214973;23;20162;-64
2023/07/02 09:26:44;;;;;;;3.55;3.40;;;;;;;27.60;100.00;152984.97;6215107;23;20219;-65
2023/07/02 09:29:10;;;;;;;3.75;3.33;;;;;;;28.10;100.00;153111.69;6215209;23;20215;-64
2023/07/02 09:31:45;;;;;;;3.50;3.40;;;;;;;28.10;100.00;153111.69;6215056;23;20160;-64
2023/07/02 09:34:12;;;;;;;4.00;3.90;;;;;;;28.05;100.00;153097.59;6215295;23;20503;-64
2023/07/02 09:36:42;;;;;;;3.60;3.50;;;;;;;28.09;100.00;153109.13;6215333;23;20162;-65
2023/07/02 09:39:12;;;;;;;3.80;3.60;;;;;;;28.03;100.00;153092.47;6214985;23;20534;-64
2023/07/02 09:41:40;;;;;;;4.07;3.78;;;;;;;27.67;100.00;153002.84;6214792;23;20185;-64
2023/07/02 09:44:08;;;;;;;3.90;3.80;;;;;;;27.44;100.00;152943.97;6214917;23;20172;-64
2023/07/02 09:46:38;;;;;;;3.63;3.53;;;;;;;27.40;100.00;152933.75;6215359;23;20231;-65
2023/07/02 09:49:07;;;;;;;4.07;3.97;;;;;;;27.74;100.00;153019.53;6214886;23;20252;-64
2023/07/02 09:51:34;;;;;;;3.72;3.58;;;;;;;28.09;100.00;153107.84;6215205;23;20162;-64
2023/07/02 09:54:03;;;;;;;3.50;3.40;;;;;;;28.34;100.00;153171.88;6214862;23;20161;-65
2023/07/02 09:56:29;;;;;;;3.85;3.65;;;;;;;28.41;100.00;153189.78;6215186;23;20611;-64
2023/07/02 09:58:56;;;;;;;3.75;3.53;;;;;;;28.97;100.00;153331.97;6214712;23;20208;-65
2023/07/02 10:01:23;;;;;;;3.40;3.30;;;;;;;28.81;100.00;153289.72;6214896;23;20544;-63
2023/07/02 10:03:50;;;;;;;3.88;3.63;;;;;;;29.02;100.00;153344.78;6214792;23;20158;-64
2023/07/02 10:06:17;;;;;;;3.78;3.50;;;;;;;28.82;100.00;153292.25;6215043;23;20639;-64
2023/07/02 10:08:55;;;;;;;4.22;3.92;;;;;;;28.39;100.00;153184.66;6215105;23;20584;-65
2023/07/02 10:11:34;;;;;;;4.00;3.90;;;;;;;28.05;100.00;153098.84;6214604;23;20179;-64
2023/07/02 10:14:01;;;;;;;4.32;4.13;;;;;;;27.73;100.00;153016.94;6214574;23;20157;-64
2023/07/02 10:16:31;;;;;;;3.63;3.42;;;;;;;27.82;100.00;153040.00;6214555;23;20157;-63
2023/07/02 10:19:09;;;;;;;4.18;3.88;;;;;;;27.80;100.00;153033.56;6214424;23;20162;-65
2023/07/02 10:21:36;;;;;;;4.20;4.00;;;;;;;28.01;100.00;153087.31;6214439;23;20178;-63
2023/07/02 10:24:11;;;;;;;4.18;4.07;;;;;;;28.01;100.00;153088.59;6215004;23;20181;-64
2023/07/02 10:26:39;;;;;;;3.83;3.63;;;;;;;27.58;100.00;152978.56;6214843;23;20525;-63
2023/07/02 10:29:07;;;;;;;4.40;4.20;;;;;;;27.55;100.00;152970.88;6214553;23;20164;-64
2023/07/02 10:31:34;;;;;;;3.80;3.60;;;;;;;27.83;100.00;153042.56;6214490;23;20161;-64
2023/07/02 10:34:01;;;;;;;4.15;4.00;;;;;;;27.29;100.00;152905.56;6214345;23;20165;-65
2023/07/02 10:36:28;;;;;;;3.85;3.72;;;;;;;27.62;100.00;152990.09;6214640;23;20473;-64
2023/07/02 10:39:02;;;;;;;3.80;3.60;;;;;;;27.71;100.00;153013.09;6214616;23;20158;-64
2023/07/02 10:41:30;;;;;;;3.65;3.55;;;;;;;27.65;100.00;152997.75;6214419;23;20698;-66
2023/07/02 10:44:07;;;;;;;3.70;3.40;;;;;;;27.45;100.00;152945.25;6214683;23;20610;-65
2023/07/02 10:46:35;;;;;;;4.00;3.70;;;;;;;27.24;100.00;152892.81;6214344;23;20240;-66
2023/07/02 10:49:01;;;;;;;3.78;3.67;;;;;;;27.15;100.00;152869.78;6214258;23;20158;-65
2023/07/02 10:51:29;;;;;;;4.43;4.15;;;;;;;27.15;100.00;152869.78;6214204;23;20237;-64
2023/07/02 10:54:00;;;;;;;3.90;3.70;;;;;;;27.05;100.00;152844.19;6214169;23;20165;-64
2023/07/02 10:56:28;;;;;;;4.32;3.92;;;;;;;26.89;100.00;152804.53;6214033;23;20173;-65
2023/07/02 10:58:55;;;;;;;4.20;3.90;;;;;;;26.98;100.00;152826.28;6213891;23;20288;-64
2023/07/02 11:01:28;;;;;;;4.10;3.92;;;;;;;27.10;100.00;152856.97;6214005;23;20205;-65
2023/07/02 11:03:59;;;;;;;4.00;3.80;;;;;;;26.82;100.00;152786.56;6214117;23;20164;-64
2023/07/02 11:06:27;;;;;;;3.95;3.80;;;;;;;26.79;100.00;152780.19;6214030;23;20169;-64
2023/07/02 11:08:55;;;;;;;3.95;3.85;;;;;;;26.72;100.00;152762.28;6214060;23;20240;-64
2023/07/02 11:11:22;;;;;;;4.43;4.22;;;;;;;26.85;100.00;152793.03;6214424;23;20215;-65
2023/07/02 11:13:51;;;;;;;4.88;3.80;;;;;;;26.83;100.00;152789.13;6214036;23;20211;-65
2023/07/02 11:16:24;;;;;;;4.03;3.92;;;;;;;26.87;100.00;152798.13;6214436;23;20157;-66
2023/07/02 11:18:53;;;;;;;5.32;5.03;;;;;;;26.82;100.00;152787.84;6214397;23;20493;-64
2023/07/02 11:21:20;;;;;;;4.68;4.57;;;;;;;26.60;100.00;152730.31;6213829;23;20189;-65
2023/07/02 11:23:46;;;;;;;5.45;5.15;;;;;;;26.63;100.00;152737.97;6213957;23;20240;-64